createdAt,value
2018-09-25T00:55:41.057Z,28.9
2018-09-25T00:56:30.001Z,28.9
2018-09-25T00:57:20.859Z,28.9
2018-09-25T00:58:10.673Z,28.9
2018-09-25T00:59:01.004Z,28.9
2018-09-25T00:59:50.498Z,28.9
2018-09-25T01:00:40.888Z,28.9
2018-09-25T01:01:30.896Z,28.9
2018-09-25T01:02:21.260Z,28.9
2018-09-25T01:03:10.803Z,28.9
2018-09-25T01:04:01.093Z,28.9
2018-09-25T01:04:51.460Z,28.9
2018-09-25T01:05:40.920Z,28.9
2018-09-25T01:06:31.085Z,28.9
2018-09-25T01:07:21.335Z,28.9
2018-09-25T01:08:11.077Z,28.9
2018-09-25T01:09:01.734Z,28.9
2018-09-25T01:09:51.201Z,28.9
2018-09-25T01:10:41.585Z,28.9
2018-09-25T01:11:31.982Z,28.9
2018-09-25T01:12:21.707Z,28.9
2018-09-25T01:13:12.037Z,28.9
2018-09-25T01:14:01.541Z,28.9
2018-09-25T01:14:51.657Z,28.9
2018-09-25T01:15:41.969Z,28.9
2018-09-25T01:16:32.017Z,28.9
2018-09-25T01:17:22.362Z,28.9
2018-09-25T01:18:11.845Z,28.9
2018-09-25T01:19:02.697Z,28.9
2018-09-25T01:19:52.544Z,28.9
2018-09-25T01:20:42.624Z,28.9
2018-09-25T01:21:32.099Z,28.9
2018-09-25T01:22:22.170Z,28.9
2018-09-25T01:23:12.482Z,28.9
2018-09-25T01:24:02.576Z,28.9
2018-09-25T01:24:52.401Z,28.9
2018-09-25T01:25:42.979Z,28.9
2018-09-25T01:26:32.745Z,28.9
2018-09-25T01:27:22.851Z,28.9
2018-09-25T01:28:12.331Z,28.9
2018-09-25T01:29:02.691Z,28.9
2018-09-25T01:29:53.036Z,28.9
2018-09-25T01:30:42.541Z,28.9
2018-09-25T01:31:33.136Z,28.9
2018-09-25T01:32:23.244Z,28.9
2018-09-25T01:33:13.303Z,28.9
2018-09-25T01:34:03.320Z,28.9
2018-09-25T01:34:53.182Z,28.9
2018-09-25T01:35:43.708Z,28.9
2018-09-25T01:36:33.758Z,28.9
2018-09-25T01:37:22.950Z,28.9
2018-09-25T01:38:14.201Z,28.8
2018-09-25T01:39:03.688Z,28.9
2018-09-25T01:39:54.267Z,28.9
2018-09-25T01:40:43.563Z,28.9
2018-09-25T01:41:33.588Z,28.9
2018-09-25T01:42:23.930Z,28.9
2018-09-25T01:43:13.992Z,28.9
2018-09-25T01:44:03.767Z,28.8
2018-09-25T01:44:53.837Z,28.8
2018-09-25T01:45:44.171Z,28.9
2018-09-25T01:46:34.301Z,28.8
2018-09-25T01:47:24.360Z,28.9
2018-09-25T01:48:14.943Z,28.8
2018-09-25T01:49:04.467Z,28.8
2018-09-25T01:49:54.859Z,28.8
2018-09-25T01:50:44.570Z,28.8
2018-09-25T01:51:34.624Z,28.8
2018-09-25T01:52:25.000Z,28.8
2018-09-25T01:53:14.494Z,28.8
2018-09-25T01:54:05.073Z,28.8
2018-09-25T01:54:54.900Z,28.8
2018-09-25T01:55:45.277Z,28.8
2018-09-25T01:56:35.020Z,28.8
2018-09-25T01:57:25.367Z,28.8
2018-09-25T01:58:15.117Z,28.8
2018-09-25T01:59:05.172Z,28.8
2018-09-25T01:59:54.951Z,28.8
2018-09-25T02:00:45.307Z,28.8
2018-09-25T02:01:35.346Z,28.8
2018-09-25T02:02:25.774Z,28.8
2018-09-25T02:03:15.824Z,28.8
2018-09-25T02:04:05.551Z,28.8
2018-09-25T02:04:55.337Z,28.8
2018-09-25T02:05:45.387Z,28.8
2018-09-25T02:06:35.769Z,28.8
2018-09-25T02:07:25.561Z,28.8
2018-09-25T02:08:15.924Z,28.8
2018-09-25T02:09:05.953Z,28.8
2018-09-25T02:09:55.986Z,28.8
2018-09-25T02:10:46.034Z,28.8
2018-09-25T02:11:36.119Z,28.8
2018-09-25T02:12:25.651Z,28.8
2018-09-25T02:13:16.483Z,28.8
2018-09-25T02:14:06.854Z,28.8
2018-09-25T02:14:56.351Z,28.8
2018-09-25T02:15:46.423Z,28.8
2018-09-25T02:16:36.523Z,28.8
2018-09-25T02:17:26.549Z,28.8
2018-09-25T02:18:16.403Z,28.8
2018-09-25T02:19:07.518Z,28.8
2018-09-25T02:19:56.448Z,28.8
2018-09-25T02:20:46.784Z,28.8
2018-09-25T02:21:36.853Z,28.8
2018-09-25T02:22:27.235Z,28.8
2018-09-25T02:23:17.568Z,28.8
2018-09-25T02:24:07.548Z,28.8
2018-09-25T02:24:57.386Z,28.8
2018-09-25T02:25:47.228Z,28.8
2018-09-25T02:26:36.418Z,28.8
2018-09-25T02:27:26.818Z,28.8
2018-09-25T02:28:16.550Z,28.8
2018-09-25T02:29:07.512Z,28.8
2018-09-25T02:29:56.375Z,28.8
2018-09-25T02:30:46.713Z,28.8
2018-09-25T02:31:37.060Z,28.8
2018-09-25T02:32:27.410Z,28.8
2018-09-25T02:33:16.997Z,28.8
2018-09-25T02:34:06.772Z,28.8
2018-09-25T02:34:57.860Z,28.8
2018-09-25T02:35:48.234Z,28.8
2018-09-25T02:36:38.251Z,28.8
2018-09-25T02:37:28.064Z,28.8
2018-09-25T02:38:18.124Z,28.8
2018-09-25T02:39:08.186Z,28.8
2018-09-25T02:39:58.306Z,28.8
2018-09-25T02:40:48.597Z,28.8
2018-09-25T02:41:38.387Z,28.8
2018-09-25T02:42:28.119Z,28.8
2018-09-25T02:43:18.492Z,28.8
2018-09-25T02:44:08.843Z,28.8
2018-09-25T02:44:58.627Z,28.7
2018-09-25T02:45:48.424Z,28.8
2018-09-25T02:46:38.966Z,28.8
2018-09-25T02:47:28.783Z,28.8
2018-09-25T02:48:18.866Z,28.7
2018-09-25T02:49:09.195Z,28.8
2018-09-25T02:49:59.246Z,28.7
2018-09-25T02:50:49.064Z,28.7
2018-09-25T02:51:39.116Z,28.7
2018-09-25T02:52:29.179Z,28.7
2018-09-25T02:53:19.522Z,28.7
2018-09-25T02:54:09.273Z,28.7
2018-09-25T02:54:59.089Z,28.7
2018-09-25T02:55:49.423Z,28.7
2018-09-25T02:56:39.789Z,28.7
2018-09-25T02:57:29.811Z,28.7
2018-09-25T02:58:19.919Z,28.7
2018-09-25T02:59:09.688Z,28.7
2018-09-25T02:59:59.444Z,28.7
2018-09-25T03:00:50.078Z,28.7
2018-09-25T03:01:39.764Z,28.7
2018-09-25T03:02:29.677Z,28.7
2018-09-25T03:03:20.165Z,28.7
2018-09-25T03:04:10.296Z,28.7
2018-09-25T03:05:00.178Z,28.7
2018-09-25T03:05:50.303Z,28.7
2018-09-25T03:06:40.400Z,28.7
2018-09-25T03:07:30.630Z,28.7
2018-09-25T03:08:20.634Z,28.7
2018-09-25T03:09:10.726Z,28.7
2018-09-25T03:10:00.803Z,28.7
2018-09-25T03:10:50.853Z,28.7
2018-09-25T03:11:40.921Z,28.7
2018-09-25T03:12:30.981Z,28.7
2018-09-25T03:13:20.727Z,28.7
2018-09-25T03:14:10.815Z,28.7
2018-09-25T03:15:01.173Z,28.7
2018-09-25T03:15:50.930Z,28.7
2018-09-25T03:16:40.988Z,28.6
2018-09-25T03:17:31.057Z,28.7
2018-09-25T03:18:21.175Z,28.6
2018-09-25T03:19:11.872Z,28.6
2018-09-25T03:20:01.217Z,28.7
2018-09-25T03:20:51.363Z,28.6
2018-09-25T03:21:41.392Z,28.6
2018-09-25T03:22:31.432Z,28.6
2018-09-25T03:23:21.220Z,28.6
2018-09-25T03:24:11.308Z,28.6
2018-09-25T03:25:01.646Z,28.6
2018-09-25T03:25:51.994Z,28.6
2018-09-25T03:26:42.006Z,28.6
2018-09-25T03:27:31.794Z,28.6
2018-09-25T03:28:21.877Z,28.6
2018-09-25T03:29:11.910Z,28.6
2018-09-25T03:30:02.254Z,28.6
2018-09-25T03:30:51.507Z,28.6
2018-09-25T03:31:42.214Z,28.6
2018-09-25T03:32:32.557Z,28.6
2018-09-25T03:33:21.948Z,28.6
2018-09-25T03:34:12.274Z,28.6
2018-09-25T03:35:02.076Z,28.6
2018-09-25T03:35:52.701Z,28.6
2018-09-25T03:36:42.789Z,28.6
2018-09-25T03:37:32.582Z,28.6
2018-09-25T03:38:22.622Z,28.6
2018-09-25T03:39:12.496Z,28.6
2018-09-25T03:40:02.815Z,28.6
2018-09-25T03:40:53.141Z,28.6
2018-09-25T03:41:43.080Z,28.6
2018-09-25T03:42:32.918Z,28.6
2018-09-25T03:43:22.665Z,28.6
2018-09-25T03:44:13.031Z,28.6
2018-09-25T03:45:03.398Z,28.6
2018-09-25T03:45:53.496Z,28.6
2018-09-25T03:46:43.761Z,28.6
2018-09-25T03:47:32.986Z,28.6
2018-09-25T03:48:22.749Z,28.6
2018-09-25T03:49:13.449Z,28.6
2018-09-25T05:24:32.302Z,28.4
2018-09-25T05:25:21.972Z,28.4
2018-09-25T05:26:12.057Z,28.4
2018-09-25T05:27:01.887Z,28.4
2018-09-25T05:27:51.615Z,28.4
2018-09-25T05:28:42.260Z,28.4
2018-09-25T05:29:32.116Z,28.4
2018-09-25T05:30:21.884Z,28.4
2018-09-25T05:31:11.921Z,28.4
2018-09-25T05:32:02.017Z,28.4
2018-09-25T05:32:52.047Z,28.4
2018-09-25T05:33:42.110Z,28.4
2018-09-25T05:34:32.204Z,28.4
2018-09-25T05:35:22.249Z,28.4
2018-09-25T05:36:12.507Z,28.4
2018-09-25T05:37:02.844Z,28.4
2018-09-25T05:37:52.922Z,28.4
2018-09-25T05:38:42.974Z,28.4
2018-09-25T05:39:32.791Z,28.4
2018-09-25T05:40:23.101Z,28.4
2018-09-25T05:41:13.199Z,28.4
2018-09-25T05:42:03.166Z,28.4
2018-09-25T05:42:53.285Z,28.4
2018-09-25T05:43:43.051Z,28.4
2018-09-25T05:44:33.126Z,28.4
2018-09-25T05:45:22.901Z,28.4
2018-09-25T05:46:13.246Z,28.4
2018-09-25T05:47:03.319Z,28.4
2018-09-25T05:47:53.506Z,28.4
2018-09-25T05:48:43.921Z,28.4
2018-09-25T05:49:33.362Z,28.4
2018-09-25T05:50:23.983Z,28.4
2018-09-25T05:51:14.223Z,28.3
2018-09-25T05:52:03.763Z,28.4
2018-09-25T05:52:53.808Z,28.4
2018-09-25T05:53:44.540Z,28.4
2018-09-25T05:54:34.153Z,28.3
2018-09-25T05:55:23.722Z,28.4
2018-09-25T05:56:14.076Z,28.4
2018-09-25T05:57:04.346Z,28.3
2018-09-25T05:57:54.408Z,28.3
2018-09-25T05:58:44.461Z,28.4
2018-09-25T05:59:34.274Z,28.3
2018-09-25T06:00:24.599Z,28.3
2018-09-25T06:01:14.979Z,28.3
2018-09-25T06:02:04.741Z,28.3
2018-09-25T06:02:54.506Z,28.3
2018-09-25T06:03:44.261Z,28.3
2018-09-25T06:04:34.648Z,28.3
2018-09-25T06:05:25.218Z,28.3
2018-09-25T06:06:15.106Z,28.3
2018-09-25T06:07:05.095Z,28.3
2018-09-25T06:07:54.896Z,28.3
2018-09-25T06:08:45.203Z,28.3
2018-09-25T06:09:35.605Z,28.3
2018-09-25T06:10:25.072Z,28.3
2018-09-25T06:11:15.640Z,28.3
2018-09-25T06:12:05.172Z,28.3
2018-09-25T06:12:55.045Z,28.3
2018-09-25T06:13:45.287Z,28.3
2018-09-25T06:14:34.937Z,28.3
2018-09-25T06:15:25.229Z,28.3
2018-09-25T06:16:15.325Z,28.3
2018-09-25T06:17:05.062Z,28.3
2018-09-25T06:17:55.121Z,28.3
2018-09-25T06:18:45.787Z,28.3
2018-09-25T06:19:35.524Z,28.3
2018-09-25T06:20:26.084Z,28.3
2018-09-25T06:21:16.168Z,28.3
2018-09-25T06:22:05.920Z,28.3
2018-09-25T06:22:56.629Z,28.3
2018-09-25T06:23:46.325Z,28.3
2018-09-25T06:24:36.110Z,28.3
2018-09-25T06:25:26.165Z,28.3
2018-09-25T06:26:16.578Z,28.3
2018-09-25T06:27:06.616Z,28.3
2018-09-25T06:27:56.106Z,28.3
2018-09-25T06:28:47.414Z,28.3
2018-09-25T06:29:36.849Z,28.3
2018-09-25T06:30:26.834Z,28.3
2018-09-25T06:31:17.199Z,28.3
2018-09-25T06:32:06.467Z,28.3
2018-09-25T06:32:57.036Z,28.3
2018-09-25T06:33:47.131Z,28.3
2018-09-25T06:34:37.492Z,28.3
2018-09-25T06:35:26.642Z,28.3
2018-09-25T06:36:17.422Z,28.3
2018-09-25T06:37:07.227Z,28.3
2018-09-25T06:37:56.859Z,28.3
2018-09-25T06:38:47.401Z,28.3
2018-09-25T06:39:37.558Z,28.3
2018-09-25T06:40:27.386Z,28.3
2018-09-25T06:41:17.666Z,28.3
2018-09-25T06:42:07.411Z,28.3
2018-09-25T06:42:57.776Z,28.3
2018-09-25T06:43:47.528Z,28.3
2018-09-25T06:44:37.591Z,28.3
2018-09-25T06:45:27.953Z,28.3
2018-09-25T06:46:18.623Z,28.3
2018-09-25T06:47:08.676Z,28.3
2018-09-25T06:47:57.856Z,28.3
2018-09-25T06:48:48.191Z,28.3
2018-09-25T06:49:38.250Z,28.3
2018-09-25T06:50:28.048Z,28.3
2018-09-25T06:51:18.067Z,28.3
2018-09-25T06:52:08.493Z,28.3
2018-09-25T06:52:58.491Z,28.3
2018-09-25T06:53:48.262Z,28.3
2018-09-25T06:54:38.903Z,28.2
2018-09-25T06:55:28.421Z,28.3
2018-09-25T06:56:18.170Z,28.3
2018-09-25T06:57:08.882Z,28.3
2018-09-25T06:57:57.803Z,28.3
2018-09-25T06:58:48.939Z,28.3
2018-09-25T06:59:39.007Z,28.2
2018-09-25T07:00:29.107Z,28.2
2018-09-25T07:01:19.152Z,28.2
2018-09-25T07:02:09.459Z,28.2
2018-09-25T07:02:59.300Z,28.2
2018-09-25T07:03:49.319Z,28.2
2018-09-25T07:04:39.087Z,28.3
2018-09-25T07:05:29.484Z,28.2
2018-09-25T07:06:19.248Z,28.2
2018-09-25T07:07:09.574Z,28.2
2018-09-25T07:07:59.349Z,28.2
2018-09-25T07:08:49.695Z,28.2
2018-09-25T07:09:40.512Z,28.2
2018-09-25T07:10:32.079Z,28.2
2018-09-25T07:11:19.921Z,28.2
2018-09-25T07:12:10.229Z,28.2
2018-09-25T07:12:59.449Z,28.2
2018-09-25T07:13:49.774Z,28.2
2018-09-25T07:14:39.567Z,28.2
2018-09-25T07:15:30.168Z,28.2
2018-09-25T07:16:19.388Z,28.2
2018-09-25T07:17:10.618Z,28.2
2018-09-25T07:18:00.914Z,28.1
2018-09-25T07:18:50.431Z,28.2
2018-09-25T07:19:40.016Z,28.2
2018-09-25T07:20:30.573Z,28.2
2018-09-25T07:21:20.608Z,28.2
2018-09-25T07:22:10.468Z,28.2
2018-09-25T07:23:00.947Z,28.2
2018-09-25T07:23:50.499Z,28.2
2018-09-25T07:24:41.835Z,28.2
2018-09-25T07:25:30.948Z,28.2
2018-09-25T07:26:20.420Z,28.2
2018-09-25T07:27:11.020Z,28.2
2018-09-25T07:28:01.125Z,28.2
2018-09-25T07:28:51.159Z,28.1
2018-09-25T07:29:41.240Z,28.2
2018-09-25T07:30:31.280Z,28.2
2018-09-25T07:31:21.353Z,28.2
2018-09-25T07:32:10.845Z,28.1
2018-09-25T07:33:01.745Z,28.1
2018-09-25T07:33:50.720Z,28.1
2018-09-25T07:34:41.654Z,28.2
2018-09-25T07:35:31.752Z,28.2
2018-09-25T07:36:21.740Z,28.1
2018-09-25T07:37:11.835Z,28.1
2018-09-25T07:38:01.819Z,28.1
2018-09-25T07:38:51.689Z,28.1
2018-09-25T07:39:41.199Z,28.1
2018-09-25T07:40:31.277Z,28.1
2018-09-25T07:41:20.695Z,28.1
2018-09-25T07:42:10.967Z,28.1
2018-09-25T07:43:01.249Z,28.1
2018-09-25T07:43:51.780Z,28.1
2018-09-25T07:44:41.626Z,28.1
2018-09-25T07:45:31.369Z,28.1
2018-09-25T07:46:21.954Z,28.1
2018-09-25T07:47:10.756Z,28.1
2018-09-25T07:48:02.288Z,28.1
2018-09-25T07:48:52.682Z,28.1
2018-09-25T07:49:42.734Z,28.1
2018-09-25T07:50:32.501Z,28.1
2018-09-25T07:51:22.582Z,28.1
2018-09-25T07:52:13.124Z,28.1
2018-09-25T07:53:03.621Z,28.1
2018-09-25T07:53:53.656Z,28.1
2018-09-25T07:54:43.513Z,28.1
2018-09-25T07:55:34.296Z,28.1
2018-09-25T07:56:23.559Z,28.1
2018-09-25T07:57:13.493Z,28.1
2018-09-25T07:58:03.567Z,28.1
2018-09-25T07:58:52.346Z,28.1
2018-09-25T07:59:42.891Z,28.1
2018-09-25T08:00:33.251Z,28.1
2018-09-25T08:01:23.613Z,28.1
2018-09-25T08:02:13.376Z,28.1
2018-09-25T08:03:03.733Z,28.1
2018-09-25T08:03:53.880Z,28.1
2018-09-25T08:04:43.308Z,28.1
2018-09-25T08:05:33.923Z,28.1
2018-09-25T08:06:23.956Z,28.1
2018-09-25T08:07:13.482Z,28.1
2018-09-25T08:08:03.838Z,28.1
2018-09-25T08:08:54.242Z,28.1
2018-09-25T08:09:43.728Z,28.1
2018-09-25T08:10:34.425Z,28.1
2018-09-25T08:11:24.532Z,28.1
2018-09-25T08:12:14.156Z,28.1
2018-09-25T08:13:03.645Z,28.1
2018-09-25T08:13:54.050Z,28.1
2018-09-25T08:14:44.713Z,28.1
2018-09-25T08:15:35.342Z,28.1
2018-09-25T08:16:24.740Z,28.1
2018-09-25T08:17:14.540Z,28.1
2018-09-25T08:18:04.580Z,28.1
2018-09-25T08:18:53.915Z,28.1
2018-09-25T08:19:44.999Z,28.1
2018-09-25T08:20:34.250Z,28.1
2018-09-25T08:21:24.300Z,28.1
2018-09-25T08:22:14.890Z,28.1
2018-09-25T08:23:05.237Z,28.1
2018-09-25T08:23:55.056Z,28.1
2018-09-25T08:24:44.859Z,28.1
2018-09-25T08:25:35.147Z,28.1
2018-09-25T08:26:25.459Z,28.1
2018-09-25T08:27:15.526Z,28.1
2018-09-25T08:28:05.120Z,28.1
2018-09-25T08:28:55.402Z,28.1
2018-09-25T08:29:46.318Z,28.1
2018-09-25T08:30:35.832Z,28.1
2018-09-25T08:31:25.572Z,28.1
2018-09-25T08:32:15.694Z,28.1
2018-09-25T08:33:05.724Z,28.1
2018-09-25T08:33:56.046Z,28.1
2018-09-25T08:34:46.372Z,28
2018-09-25T08:35:36.177Z,28.1
2018-09-25T08:36:26.222Z,28.1
2018-09-25T08:37:16.349Z,28
2018-09-25T08:38:06.088Z,28
2018-09-25T08:38:56.871Z,28.1
2018-09-25T08:39:46.582Z,28
2018-09-25T08:40:36.604Z,28
2018-09-25T08:41:26.619Z,28
2018-09-25T08:42:16.664Z,28.1
2018-09-25T08:43:06.446Z,28
2018-09-25T08:43:56.792Z,28
2018-09-25T08:44:46.589Z,28
2018-09-25T08:45:36.687Z,28
2018-09-25T08:46:26.671Z,28
2018-09-25T08:47:16.218Z,28
2018-09-25T08:48:06.333Z,28
2018-09-25T08:48:57.211Z,28
2018-09-25T08:49:47.216Z,28
2018-09-25T08:50:37.276Z,28
2018-09-25T08:51:27.353Z,28
2018-09-25T08:52:17.376Z,28
2018-09-25T08:53:07.048Z,28
2018-09-25T08:53:57.595Z,28
2018-09-25T08:54:47.608Z,28
2018-09-25T08:55:37.383Z,28
2018-09-25T08:56:27.763Z,28
2018-09-25T08:57:17.506Z,28
2018-09-25T08:58:07.835Z,28
2018-09-25T08:58:57.940Z,28
2018-09-25T08:59:47.684Z,28
2018-09-25T09:00:38.342Z,28
2018-09-25T09:01:28.115Z,28
2018-09-25T09:02:18.169Z,28
2018-09-25T09:03:08.222Z,28
2018-09-25T09:03:57.814Z,28
2018-09-25T09:04:47.881Z,28
2018-09-25T09:05:38.412Z,28
2018-09-25T09:06:28.740Z,27.9
2018-09-25T09:07:18.509Z,28
2018-09-25T09:08:08.387Z,27.9
2018-09-25T09:08:58.697Z,27.9
2018-09-25T09:09:48.704Z,27.9
2018-09-25T09:10:38.789Z,28
2018-09-25T09:11:28.322Z,28
2018-09-25T09:12:18.924Z,27.9
2018-09-25T09:13:08.994Z,27.9
2018-09-25T09:13:58.781Z,28
2018-09-25T09:14:49.079Z,27.9
2018-09-25T09:15:39.147Z,27.9
2018-09-25T09:16:28.946Z,27.9
2018-09-25T09:17:19.034Z,27.9
2018-09-25T09:18:09.381Z,27.9
2018-09-25T09:18:59.410Z,27.9
2018-09-25T09:19:50.375Z,27.9
2018-09-25T09:20:39.234Z,27.9
2018-09-25T09:21:29.095Z,27.9
2018-09-25T09:22:19.382Z,27.9
2018-09-25T09:39:11.017Z,27.9
2018-09-25T09:40:01.244Z,27.9
2018-09-25T09:40:50.750Z,27.9
2018-09-25T09:41:45.350Z,27.9
2018-09-25T09:42:31.087Z,27.9
2018-09-25T09:43:21.126Z,27.9
2018-09-25T09:44:10.912Z,27.9
2018-09-25T09:45:01.242Z,27.9
2018-09-25T09:45:51.331Z,27.9
2018-09-25T09:46:41.397Z,27.9
2018-09-25T09:47:31.139Z,27.9
2018-09-25T09:48:21.483Z,27.9
2018-09-25T09:49:11.554Z,27.9
2018-09-25T09:50:01.929Z,27.9
2018-09-25T09:50:51.112Z,27.9
2018-09-25T09:51:41.463Z,27.9
2018-09-25T09:52:31.206Z,27.9
2018-09-25T09:53:21.846Z,27.9
2018-09-25T09:54:11.336Z,27.9
2018-09-25T09:55:02.014Z,27.9
2018-09-25T09:55:51.756Z,27.9
2018-09-25T09:56:42.111Z,27.9
2018-09-25T09:57:31.883Z,27.9
2018-09-25T09:58:21.924Z,27.9
2018-09-25T09:59:12.305Z,27.9
2018-09-25T10:00:02.142Z,27.9
2018-09-25T10:00:52.388Z,27.9
2018-09-25T10:01:41.921Z,27.9
2018-09-25T10:02:32.591Z,27.9
2018-09-25T10:03:22.314Z,27.9
2018-09-25T10:04:12.474Z,27.9
2018-09-25T10:05:02.469Z,27.9
2018-09-25T10:05:53.213Z,27.9
2018-09-25T10:06:43.435Z,27.9
2018-09-25T10:07:32.651Z,27.9
2018-09-25T10:08:22.990Z,27.9
2018-09-25T10:09:13.103Z,27.9
2018-09-25T10:10:02.817Z,27.9
2018-09-25T10:10:52.925Z,27.9
2018-09-25T10:11:42.670Z,27.9
2018-09-25T10:12:33.822Z,27.9
2018-09-25T10:13:22.823Z,27.9
2018-09-25T10:16:42.820Z,27.9
2018-09-25T10:19:13.786Z,27.9
2018-09-25T10:20:03.593Z,27.9
2018-09-25T10:46:45.574Z,27.8
2018-09-25T10:48:25.707Z,27.8
2018-09-25T10:50:55.597Z,27.8
2018-09-25T10:51:45.979Z,27.8
2018-09-25T10:52:36.309Z,27.8
2018-09-25T10:53:26.068Z,27.8
2018-09-25T10:54:16.424Z,27.8
2018-09-25T10:55:58.291Z,27.8
2018-09-25T10:56:46.107Z,27.8
2018-09-25T10:57:36.712Z,27.8
2018-09-25T10:58:27.147Z,27.8
2018-09-25T10:59:16.629Z,27.8
2018-09-25T11:00:06.842Z,27.8
2018-09-25T11:00:56.929Z,27.8
2018-09-25T11:01:46.737Z,27.8
2018-09-25T11:02:36.493Z,27.8
2018-09-25T11:03:26.940Z,27.8
2018-09-25T11:04:16.902Z,27.8
2018-09-25T11:05:07.502Z,27.8
2018-09-25T11:05:56.824Z,27.8
2018-09-25T11:06:47.724Z,27.8
2018-09-25T11:07:37.434Z,27.8
2018-09-25T11:08:27.461Z,27.8
2018-09-25T11:09:16.966Z,27.8
2018-09-25T11:10:08.904Z,27.8
2018-09-25T11:10:56.924Z,27.8
2018-09-25T11:11:47.716Z,27.8
2018-09-25T11:12:37.004Z,27.8
2018-09-25T11:13:27.579Z,27.8
2018-09-25T11:14:17.071Z,27.8
2018-09-25T11:15:07.691Z,27.8
2018-09-25T11:15:57.768Z,27.8
2018-09-25T11:16:48.468Z,27.8
2018-09-25T11:17:38.269Z,27.8
2018-09-25T11:18:28.310Z,27.8
2018-09-25T11:19:18.328Z,27.8
2018-09-25T11:20:08.369Z,27.8
2018-09-25T11:20:58.196Z,27.8
2018-09-25T11:21:48.785Z,27.8
2018-09-25T11:22:38.231Z,27.7
2018-09-25T11:23:28.588Z,27.7
2018-09-25T11:24:18.663Z,27.7
2018-09-25T11:25:08.786Z,27.7
2018-09-25T11:25:58.526Z,27.7
2018-09-25T11:26:48.585Z,27.7
2018-09-25T11:27:38.930Z,27.8
2018-09-25T11:28:29.021Z,27.7
2018-09-25T11:29:18.480Z,27.7
2018-09-25T11:30:08.553Z,27.7
2018-09-25T11:30:59.457Z,27.7
2018-09-25T11:31:49.503Z,27.7
2018-09-25T11:32:38.257Z,27.7
2018-09-25T11:33:29.124Z,27.7
2018-09-25T11:34:19.417Z,27.7
2018-09-25T11:35:09.913Z,27.7
2018-09-25T11:35:59.568Z,27.7
2018-09-25T11:36:49.604Z,27.7
2018-09-25T11:37:39.622Z,27.7
2018-09-25T11:38:29.757Z,27.7
2018-09-25T11:39:20.125Z,27.7
2018-09-25T11:40:09.902Z,27.7
2018-09-25T11:41:00.424Z,27.7
2018-09-25T11:41:50.082Z,27.7
2018-09-25T11:42:40.365Z,27.7
2018-09-25T11:43:30.152Z,27.7
2018-09-25T11:44:20.479Z,27.7
2018-09-25T11:45:10.244Z,27.7
2018-09-25T11:46:00.149Z,27.7
2018-09-25T11:46:50.601Z,27.7
2018-09-25T11:47:40.434Z,27.7
2018-09-25T11:48:29.931Z,27.7
2018-09-25T11:49:20.259Z,27.7
2018-09-25T11:50:10.652Z,27.7
2018-09-25T11:51:00.659Z,27.7
2018-09-25T11:51:50.449Z,27.7
2018-09-25T11:52:41.175Z,27.6
2018-09-25T11:53:31.124Z,27.7
2018-09-25T11:54:20.659Z,27.7
2018-09-25T11:55:10.729Z,27.7
2018-09-25T11:56:00.488Z,27.7
2018-09-25T11:56:50.561Z,27.7
2018-09-25T11:57:40.189Z,27.7
2018-09-25T11:58:31.909Z,27.7
2018-09-25T11:59:21.021Z,27.6
2018-09-25T12:00:11.450Z,27.6
2018-09-25T12:01:01.206Z,27.7
2018-09-25T12:01:50.977Z,27.6
2018-09-25T12:02:41.884Z,27.6
2018-09-25T12:03:31.732Z,27.7
2018-09-25T12:04:20.772Z,27.6
2018-09-25T12:05:11.180Z,27.6
2018-09-25T12:06:01.243Z,27.6
2018-09-25T12:06:51.363Z,27.6
2018-09-25T12:07:41.952Z,27.6
2018-09-25T12:08:31.424Z,27.6
2018-09-25T12:09:21.047Z,27.6
2018-09-25T12:10:10.645Z,27.6
2018-09-25T12:11:01.022Z,27.6
2018-09-25T12:11:51.195Z,27.6
2018-09-25T12:12:41.285Z,27.6
2018-09-25T12:13:31.897Z,27.6
2018-09-25T12:14:21.280Z,27.6
2018-09-25T12:15:11.652Z,27.6
2018-09-25T12:16:01.152Z,27.6
2018-09-25T12:16:52.622Z,27.6
2018-09-25T12:17:42.413Z,27.6
2018-09-25T12:18:32.470Z,27.6
2018-09-25T12:19:22.041Z,27.6
2018-09-25T12:20:12.020Z,27.6
2018-09-25T12:21:02.377Z,27.6
2018-09-25T12:21:52.426Z,27.6
2018-09-25T12:22:42.794Z,27.6
2018-09-25T12:23:33.981Z,27.6
2018-09-25T12:24:23.533Z,27.6
2018-09-25T12:25:12.941Z,27.6
2018-09-25T12:26:03.282Z,27.6
2018-09-25T12:26:52.794Z,27.6
2018-09-25T12:27:43.158Z,27.6
2018-09-25T12:28:33.479Z,27.6
2018-09-25T12:29:22.993Z,27.6
2018-09-25T12:30:13.363Z,27.6
2018-09-25T12:31:03.699Z,27.6
2018-09-25T12:31:53.174Z,27.6
2018-09-25T12:32:45.940Z,27.6
2018-09-25T12:33:33.306Z,27.6
2018-09-25T12:34:23.641Z,27.6
2018-09-25T12:35:13.696Z,27.6
2018-09-25T12:36:03.786Z,27.6
2018-09-25T12:36:54.113Z,27.6
2018-09-25T12:37:44.433Z,27.6
2018-09-25T12:38:34.267Z,27.6
2018-09-25T12:39:24.307Z,27.6
2018-09-25T12:40:14.653Z,27.6
2018-09-25T12:41:04.880Z,27.6
2018-09-25T12:41:54.190Z,27.6
2018-09-25T12:42:44.534Z,27.6
2018-09-25T12:43:34.513Z,27.6
2018-09-25T12:44:24.398Z,27.6
2018-09-25T12:45:13.870Z,27.6
2018-09-25T12:46:04.797Z,27.6
2018-09-25T12:46:54.870Z,27.6
2018-09-25T12:47:44.628Z,27.6
2018-09-25T12:48:34.672Z,27.6
2018-09-25T12:49:24.482Z,27.6
2018-09-25T12:50:15.092Z,27.6
2018-09-25T12:51:04.318Z,27.6
2018-09-25T12:51:54.943Z,27.6
2018-09-25T12:52:45.570Z,27.6
2018-09-25T12:53:35.364Z,27.6
2018-09-25T12:54:25.425Z,27.6
2018-09-25T12:55:15.434Z,27.6
2018-09-25T12:56:05.515Z,27.6
2018-09-25T12:56:55.109Z,27.5
2018-09-25T12:57:45.669Z,27.5
2018-09-25T12:58:35.731Z,27.5
2018-09-25T12:59:25.801Z,27.6
2018-09-25T13:00:15.311Z,27.6
2018-09-25T13:01:05.894Z,27.6
2018-09-25T13:01:55.696Z,27.6
2018-09-25T13:02:45.771Z,27.5
2018-09-25T13:03:36.158Z,27.6
2018-09-25T13:04:26.475Z,27.6
2018-09-25T13:05:15.973Z,27.5
2018-09-25T13:06:06.617Z,27.6
2018-09-25T13:06:56.068Z,27.5
2018-09-25T13:07:46.141Z,27.5
2018-09-25T13:08:36.481Z,27.5
2018-09-25T13:09:26.298Z,27.6
2018-09-25T13:10:16.636Z,27.6
2018-09-25T13:11:06.711Z,27.5
2018-09-25T13:11:56.168Z,27.5
2018-09-25T13:12:45.953Z,27.5
2018-09-25T13:13:36.416Z,27.5
2018-09-25T13:14:26.148Z,27.5
2018-09-25T13:15:16.976Z,27.5
2018-09-25T13:16:07.967Z,27.5
2018-09-25T13:16:56.835Z,27.5
2018-09-25T13:17:47.191Z,27.5
2018-09-25T13:18:37.236Z,27.5
2018-09-25T13:19:26.744Z,27.5
2018-09-25T13:20:16.585Z,27.5
2018-09-25T13:21:07.675Z,27.5
2018-09-25T13:21:56.908Z,27.5
2018-09-25T13:22:47.560Z,27.5
2018-09-25T13:23:37.683Z,27.5
2018-09-25T13:24:27.420Z,27.5
2018-09-25T13:25:18.001Z,27.5
2018-09-25T13:26:07.798Z,27.5
2018-09-25T13:26:57.380Z,27.5
2018-09-25T13:27:47.925Z,27.5
2018-09-25T13:28:38.023Z,27.5
2018-09-25T13:29:28.067Z,27.5
2018-09-25T13:30:17.257Z,27.5
2018-09-25T13:31:08.160Z,27.5
2018-09-25T13:31:58.489Z,27.5
2018-09-25T13:32:48.290Z,27.5
2018-09-25T13:33:37.797Z,27.5
2018-09-25T13:34:28.155Z,27.5
2018-09-25T13:35:18.829Z,27.5
2018-09-25T13:36:08.540Z,27.5
2018-09-25T13:36:58.580Z,27.5
2018-09-25T13:37:48.395Z,27.5
2018-09-25T13:38:38.738Z,27.4
2018-09-25T13:39:28.758Z,27.5
2018-09-25T13:40:18.885Z,27.5
2018-09-25T13:41:08.982Z,27.4
2018-09-25T13:41:59.194Z,27.4
2018-09-25T13:42:49.056Z,27.4
2018-09-25T13:43:39.111Z,27.5
2018-09-25T13:44:28.959Z,27.4
2018-09-25T13:45:18.972Z,27.4
2018-09-25T13:46:08.729Z,27.4
2018-09-25T13:46:59.626Z,27.4
2018-09-25T13:47:49.659Z,27.4
2018-09-25T13:48:38.919Z,27.4
2018-09-25T13:49:29.592Z,27.4
2018-09-25T13:50:19.381Z,27.4
2018-09-25T13:51:09.659Z,27.4
2018-09-25T13:51:59.991Z,27.4
2018-09-25T13:52:49.239Z,27.4
2018-09-25T13:53:39.836Z,27.4
2018-09-25T13:54:29.956Z,27.4
2018-09-25T13:55:20.001Z,27.4
2018-09-25T13:56:11.036Z,27.4
2018-09-25T13:57:00.372Z,27.4
2018-09-25T13:57:50.149Z,27.4
2018-09-25T13:58:39.951Z,27.4
2018-09-25T13:59:30.016Z,27.4
2018-09-25T14:00:20.388Z,27.4
2018-09-25T14:01:10.125Z,27.4
2018-09-25T14:02:00.201Z,27.4
2018-09-25T14:02:50.568Z,27.4
2018-09-25T14:03:40.135Z,27.4
2018-09-25T14:04:30.691Z,27.4
2018-09-25T14:05:20.463Z,27.4
2018-09-25T14:06:10.805Z,27.4
2018-09-25T14:07:00.558Z,27.4
2018-09-25T14:07:50.931Z,27.4
2018-09-25T14:08:41.003Z,27.4
2018-09-25T14:09:31.713Z,27.4
2018-09-25T14:10:20.892Z,27.4
2018-09-25T14:11:11.253Z,27.4
2018-09-25T14:12:00.963Z,27.4
2018-09-25T14:12:50.720Z,27.4
2018-09-25T14:13:40.793Z,27.4
2018-09-25T14:14:31.492Z,27.4
2018-09-25T14:15:21.437Z,27.4
2018-09-25T14:16:11.559Z,27.4
2018-09-25T14:17:00.755Z,27.4
2018-09-25T14:17:51.397Z,27.4
2018-09-25T14:18:42.016Z,27.4
2018-09-25T14:19:31.817Z,27.4
2018-09-25T14:20:21.596Z,27.4
2018-09-25T14:21:11.609Z,27.4
2018-09-25T14:22:02.132Z,27.4
2018-09-25T14:22:51.517Z,27.4
2018-09-25T14:23:42.114Z,27.4
2018-09-25T14:24:32.666Z,27.4
2018-09-25T14:25:21.397Z,27.4
2018-09-25T14:26:12.269Z,27.4
2018-09-25T14:27:02.082Z,27.4
2018-09-25T14:27:53.620Z,27.4